Main page
METAR-TAF:

METAR-TAF

Airports :

Chinggis Khaan International Airport

Ulan Bator, Mongolia

latitude: 47-55N, longitude: 106-52E, elevation: 1306 m

Current weather observation

The report was made 27 minutes ago, at 22:00 UTC
Wind 6 kt from the South
Temperature -23°C
Humidity 76%
Pressure 1023 hPa
Visibility 10 km or more
no clouds below 1500 m and no cumulonimbus

METAR: ZMUB 202200Z 17003MPS CAVOK M23/M26 Q1023 NOSIG RMK QFE659.4 78

Time: 06:27 (22:27 UTC)

Forecast

The report was made 5 hours and 57 minutes ago, at 16:30 UTC
Forecast valid from 20 at 18 UTC to 21 at 24 UTC
Wind 4 kt from variable directions
Visibility 10 km or more
Scattered clouds at a height of 10000 ft

TAF: ZMUB 201630Z 2018/2124 VRB02MPS 9999 SCT100 TNM24/2023Z TXM10/2107Z

Weather observations and forecasts of more than 4000 airports (METAR and TAF reports).

The available stations are represented by yellow and red dots on the map.

Hover mouse over dot to see the name of the station.

Then click to see weather observations and forecasts.

To change the map : click on the green buttons with a black cross to zoom in, on the green button with a dash to zoom out, or on the green arrows for adjacent maps.


METAR-TAF: